Time;durP1;ratioP1;P1;durP2;ratioP2;P2;SDS_P1;SDS_P2;PMS_P1;PMS_P2;Temp;Humidity;BMP_temperature;BMP_pressure;BME280_temperature;BME280_humidity;BME280_pressure;Samples;Min_cycle;Max_cycle;Signal;HPM_P1;HPM_P2
2023/03/18 00:00:39;;;;;;;;;;;12.60;73.80;;;;;;5065333;28;19959;-82
2023/03/18 00:03:05;;;;;;;;;;;12.60;74.00;;;;;;5070906;28;20262;-82
2023/03/18 00:05:31;;;;;;;;;;;12.60;74.00;;;;;;5060080;28;19912;-81
2023/03/18 00:07:56;;;;;;;;;;;12.60;74.00;;;;;;5058891;28;19924;-82
2023/03/18 00:10:22;;;;;;;;;;;12.60;74.30;;;;;;5075148;28;20335;-81
2023/03/18 00:12:48;;;;;;;;;;;12.50;74.50;;;;;;5073518;28;19916;-82
2023/03/18 00:15:15;;;;;;;;;;;12.50;74.60;;;;;;5071727;28;20396;-82
2023/03/18 00:17:41;;;;;;;;;;;12.40;74.90;;;;;;5071293;28;21457;-82
2023/03/18 00:20:08;;;;;;;;;;;12.40;75.10;;;;;;5055378;28;19965;-82
2023/03/18 00:22:34;;;;;;;;;;;12.50;74.90;;;;;;5068050;28;19912;-82
2023/03/18 00:25:00;;;;;;;;;;;12.40;75.00;;;;;;5065473;28;19962;-82
2023/03/18 00:27:26;;;;;;;;;;;12.30;75.20;;;;;;5067836;28;19942;-81
2023/03/18 00:29:52;;;;;;;;;;;12.30;75.40;;;;;;5059091;28;20005;-82
2023/03/18 00:32:17;;;;;;;;;;;12.30;75.50;;;;;;5080309;28;19999;-82
2023/03/18 00:37:17;;;;;;;;;;;12.40;75.40;;;;;;5086168;28;19924;-86
2023/03/18 00:39:44;;;;;;;;;;;12.40;75.40;;;;;;5084547;28;19912;-85
2023/03/18 00:42:11;;;;;;;;;;;12.30;75.30;;;;;;5090991;28;19924;-84
2023/03/18 00:44:37;;;;;;;;;;;12.20;75.70;;;;;;5093538;28;19947;-84
2023/03/18 00:47:03;;;;;;;;;;;12.20;75.70;;;;;;5094957;28;19946;-83
2023/03/18 00:49:29;;;;;;;;;;;12.20;75.60;;;;;;5080229;28;19948;-84
2023/03/18 00:51:54;;;;;;;;;;;12.20;75.80;;;;;;5077043;28;19913;-84
2023/03/18 00:54:21;;;;;;;;;;;12.20;75.60;;;;;;5085186;28;19965;-84
2023/03/18 00:56:46;;;;;;;;;;;12.20;75.70;;;;;;5081312;28;19919;-85
2023/03/18 00:59:12;;;;;;;;;;;12.20;75.70;;;;;;5058442;28;20003;-84
2023/03/18 01:01:38;;;;;;;;;;;12.30;75.50;;;;;;5066955;28;20443;-85
2023/03/18 01:04:05;;;;;;;;;;;12.20;75.80;;;;;;5073020;28;19927;-82
2023/03/18 01:06:32;;;;;;;;;;;12.10;76.10;;;;;;5058813;28;19923;-83
2023/03/18 01:08:58;;;;;;;;;;;12.10;76.40;;;;;;5067670;28;19974;-85
2023/03/18 01:11:25;;;;;;;;;;;12.10;76.50;;;;;;5082649;28;20003;-82
2023/03/18 01:13:51;;;;;;;;;;;12.10;76.30;;;;;;5071960;28;20362;-83
2023/03/18 01:16:18;;;;;;;;;;;12.10;76.30;;;;;;5080919;28;19992;-84
2023/03/18 01:18:44;;;;;;;;;;;12.10;76.60;;;;;;5071358;28;19996;-84
2023/03/18 01:21:10;;;;;;;;;;;12.10;76.40;;;;;;5066043;28;19932;-85
2023/03/18 01:23:36;;;;;;;;;;;12.00;76.50;;;;;;5077278;28;20273;-84
2023/03/18 01:26:02;;;;;;;;;;;12.00;76.80;;;;;;5087830;28;19951;-82
2023/03/18 01:28:28;;;;;;;;;;;12.00;76.90;;;;;;5075360;28;19926;-84
2023/03/18 01:30:54;;;;;;;;;;;11.90;77.00;;;;;;5076432;28;19939;-85
2023/03/18 01:33:20;;;;;;;;;;;11.90;77.10;;;;;;5064540;28;19919;-84
2023/03/18 01:35:51;;;;;;;;;;;11.80;77.20;;;;;;5083101;28;19932;-81
2023/03/18 01:38:17;;;;;;;;;;;11.80;77.30;;;;;;5097212;28;19930;-81
2023/03/18 01:40:44;;;;;;;;;;;11.90;77.10;;;;;;5105281;28;19905;-84
2023/03/18 01:43:10;;;;;;;;;;;11.90;77.30;;;;;;5067030;28;19919;-84
2023/03/18 01:45:35;;;;;;;;;;;12.00;77.10;;;;;;5083804;28;20098;-84
2023/03/18 01:48:01;;;;;;;;;;;12.00;77.10;;;;;;5055797;28;19932;-84
2023/03/18 01:50:29;;;;;;;;;;;11.90;77.40;;;;;;5074720;28;19957;-84
2023/03/18 01:52:59;;;;;;;;;;;11.90;77.50;;;;;;5072814;28;20284;-84
2023/03/18 01:55:26;;;;;;;;;;;11.90;77.60;;;;;;5078942;28;20026;-85
2023/03/18 01:57:52;;;;;;;;;;;11.90;77.60;;;;;;5078433;28;19913;-84
2023/03/18 02:00:18;;;;;;;;;;;11.90;77.70;;;;;;5072753;28;19921;-85
2023/03/18 02:02:45;;;;;;;;;;;12.00;77.80;;;;;;5057098;28;19919;-84
2023/03/18 02:05:18;;;;;;;;;;;12.00;77.80;;;;;;5082737;28;19955;-84
2023/03/18 02:07:44;;;;;;;;;;;12.00;77.80;;;;;;5070314;28;19971;-83
2023/03/18 02:10:14;;;;;;;;;;;12.00;77.90;;;;;;5068080;28;19921;-84
2023/03/18 02:12:44;;;;;;;;;;;12.00;77.90;;;;;;5055147;28;19912;-84
2023/03/18 02:15:12;;;;;;;;;;;12.00;78.00;;;;;;5078982;28;19951;-84
2023/03/18 02:17:39;;;;;;;;;;;12.10;77.90;;;;;;5076236;28;19924;-84
2023/03/18 02:20:14;;;;;;;;;;;12.10;77.90;;;;;;5072696;28;19945;-84
2023/03/18 02:22:42;;;;;;;;;;;12.10;78.00;;;;;;5073362;28;19912;-84
2023/03/18 02:25:24;;;;;;;;;;;12.10;78.10;;;;;;5080741;28;19958;-84
2023/03/18 02:28:00;;;;;;;;;;;12.10;78.10;;;;;;5078949;28;19962;-84
2023/03/18 02:30:30;;;;;;;;;;;12.10;78.10;;;;;;5073267;28;19913;-85
2023/03/18 02:32:56;;;;;;;;;;;12.20;78.20;;;;;;5059365;28;19951;-85
2023/03/18 02:35:23;;;;;;;;;;;12.20;78.10;;;;;;5063745;28;19921;-86
2023/03/18 02:37:48;;;;;;;;;;;12.20;78.30;;;;;;5077928;28;20051;-84
2023/03/18 02:40:22;;;;;;;;;;;12.10;78.50;;;;;;5091141;28;20011;-85
2023/03/18 02:42:48;;;;;;;;;;;12.10;78.70;;;;;;5061299;28;20309;-83
2023/03/18 02:45:29;;;;;;;;;;;12.30;78.40;;;;;;5085142;28;19913;-83
2023/03/18 02:47:57;;;;;;;;;;;12.20;78.50;;;;;;5059016;28;19923;-86
2023/03/18 02:50:23;;;;;;;;;;;12.20;78.80;;;;;;5079407;28;20012;-85
2023/03/18 02:52:49;;;;;;;;;;;12.20;78.70;;;;;;5075966;28;20478;-84
2023/03/18 02:55:14;;;;;;;;;;;12.10;78.80;;;;;;5081304;28;19920;-84
2023/03/18 02:57:40;;;;;;;;;;;12.00;79.30;;;;;;5079778;28;19912;-84
2023/03/18 03:00:08;;;;;;;;;;;11.90;79.80;;;;;;5069369;28;19900;-82
2023/03/18 03:02:33;;;;;;;;;;;11.80;80.20;;;;;;5070940;28;19999;-85
2023/03/18 03:04:59;;;;;;;;;;;11.90;79.80;;;;;;5085826;28;19990;-84
2023/03/18 03:07:25;;;;;;;;;;;11.80;80.20;;;;;;5077366;28;19958;-84
2023/03/18 03:09:50;;;;;;;;;;;11.70;80.70;;;;;;5087348;28;19932;-83
2023/03/18 03:12:16;;;;;;;;;;;11.70;80.80;;;;;;5079059;28;19912;-85
2023/03/18 03:14:41;;;;;;;;;;;11.60;81.00;;;;;;5076345;28;20003;-84
2023/03/18 03:17:08;;;;;;;;;;;11.60;81.30;;;;;;5075834;28;19958;-84
2023/03/18 03:19:33;;;;;;;;;;;11.60;81.30;;;;;;5076352;28;19967;-85
2023/03/18 03:21:59;;;;;;;;;;;11.60;81.60;;;;;;5076479;28;19936;-84
2023/03/18 03:24:25;;;;;;;;;;;11.60;81.70;;;;;;5081504;28;20017;-85
2023/03/18 03:26:50;;;;;;;;;;;11.50;81.90;;;;;;5073139;28;20518;-86
2023/03/18 03:29:16;;;;;;;;;;;11.50;81.90;;;;;;5074664;28;20301;-85
2023/03/18 03:31:41;;;;;;;;;;;11.50;82.10;;;;;;5075156;28;19930;-85
2023/03/18 03:34:07;;;;;;;;;;;11.40;82.20;;;;;;5076976;28;20396;-83
2023/03/18 03:36:33;;;;;;;;;;;11.30;82.40;;;;;;5074668;28;19916;-86
2023/03/18 03:38:58;;;;;;;;;;;11.30;82.40;;;;;;5079273;28;19997;-84
2023/03/18 03:41:23;;;;;;;;;;;11.40;82.70;;;;;;5074476;28;19965;-83
2023/03/18 03:43:49;;;;;;;;;;;11.30;82.60;;;;;;5060689;28;19913;-84
2023/03/18 03:46:14;;;;;;;;;;;11.30;82.60;;;;;;5074252;28;20024;-84
2023/03/18 03:48:40;;;;;;;;;;;11.20;82.80;;;;;;5046641;28;19920;-83
2023/03/18 03:51:06;;;;;;;;;;;11.30;82.90;;;;;;5058476;28;19920;-85
2023/03/18 03:53:32;;;;;;;;;;;11.30;82.90;;;;;;5073672;28;19955;-84
2023/03/18 03:55:58;;;;;;;;;;;11.40;83.00;;;;;;5076326;28;20432;-84
2023/03/18 03:58:24;;;;;;;;;;;11.40;82.80;;;;;;5053075;28;19923;-83
2023/03/18 04:00:50;;;;;;;;;;;11.30;83.00;;;;;;5072068;28;20371;-85
2023/03/18 04:03:15;;;;;;;;;;;11.40;82.90;;;;;;5071675;28;19920;-85
2023/03/18 04:05:42;;;;;;;;;;;11.30;82.90;;;;;;5072692;28;19912;-83
2023/03/18 04:08:07;;;;;;;;;;;11.20;83.10;;;;;;5070927;28;19996;-84
2023/03/18 04:13:36;;;;;;;;;;;11.10;83.40;;;;;;5069144;28;19923;-82
2023/03/18 04:16:01;;;;;;;;;;;11.00;83.50;;;;;;5070170;28;19912;-84
2023/03/18 04:18:27;;;;;;;;;;;11.00;83.70;;;;;;5069925;28;20305;-84
2023/03/18 04:20:53;;;;;;;;;;;11.00;83.80;;;;;;5070706;28;19912;-86
2023/03/18 04:23:18;;;;;;;;;;;11.00;84.10;;;;;;5058052;28;19916;-84
2023/03/18 04:25:44;;;;;;;;;;;11.00;84.20;;;;;;5085239;28;20308;-82
2023/03/18 04:28:09;;;;;;;;;;;11.00;84.10;;;;;;5070659;28;20011;-84
2023/03/18 04:30:35;;;;;;;;;;;10.90;84.20;;;;;;5064758;28;20304;-85
2023/03/18 04:33:00;;;;;;;;;;;10.90;84.40;;;;;;5067166;28;19916;-85
2023/03/18 04:35:26;;;;;;;;;;;10.80;84.60;;;;;;5069029;28;20452;-84
2023/03/18 04:37:53;;;;;;;;;;;10.90;84.70;;;;;;5066698;28;19912;-85
2023/03/18 04:40:18;;;;;;;;;;;10.80;84.80;;;;;;5075834;28;20008;-84
2023/03/18 04:42:46;;;;;;;;;;;10.90;84.90;;;;;;5083109;28;19920;-85
2023/03/18 04:45:12;;;;;;;;;;;10.90;84.90;;;;;;5073447;28;19913;-83
2023/03/18 04:47:39;;;;;;;;;;;10.90;84.70;;;;;;5067131;28;19967;-84
2023/03/18 04:50:04;;;;;;;;;;;10.90;84.60;;;;;;5052991;28;19912;-83
2023/03/18 04:52:30;;;;;;;;;;;10.90;84.60;;;;;;5064397;28;20373;-83
2023/03/18 04:54:56;;;;;;;;;;;10.90;84.60;;;;;;5079073;28;19923;-85
2023/03/18 04:57:21;;;;;;;;;;;10.90;84.50;;;;;;5070208;28;19923;-86
2023/03/18 04:59:47;;;;;;;;;;;10.80;84.60;;;;;;5051626;28;19963;-85
2023/03/18 05:02:13;;;;;;;;;;;10.90;84.70;;;;;;5071316;28;19948;-84
2023/03/18 05:04:38;;;;;;;;;;;10.80;84.90;;;;;;5072442;28;19915;-84
2023/03/18 05:07:04;;;;;;;;;;;11.00;84.80;;;;;;5052052;28;19917;-85
2023/03/18 05:09:30;;;;;;;;;;;11.10;84.60;;;;;;5075957;28;19920;-85
2023/03/18 05:11:55;;;;;;;;;;;11.10;84.30;;;;;;5075114;28;19966;-84
2023/03/18 05:14:21;;;;;;;;;;;11.20;84.20;;;;;;5081896;28;19919;-81
2023/03/18 05:16:46;;;;;;;;;;;11.20;84.10;;;;;;5109235;28;19901;-81
2023/03/18 05:19:12;;;;;;;;;;;11.30;84.00;;;;;;5083111;28;19912;-83
2023/03/18 05:21:38;;;;;;;;;;;11.30;83.80;;;;;;5070809;28;19924;-83
2023/03/18 05:24:03;;;;;;;;;;;11.20;83.70;;;;;;5073988;28;20024;-85
2023/03/18 05:26:29;;;;;;;;;;;11.30;83.80;;;;;;5078523;28;20373;-82
2023/03/18 05:28:55;;;;;;;;;;;11.30;83.80;;;;;;5069155;28;20294;-85
2023/03/18 05:31:20;;;;;;;;;;;11.30;83.90;;;;;;5071369;28;19909;-85
2023/03/18 05:33:46;;;;;;;;;;;11.20;83.90;;;;;;5077267;28;20003;-84
2023/03/18 05:36:12;;;;;;;;;;;11.20;84.00;;;;;;5083649;28;19966;-84
2023/03/18 05:38:37;;;;;;;;;;;11.20;84.20;;;;;;5068765;28;19947;-85
2023/03/18 05:41:03;;;;;;;;;;;11.10;84.10;;;;;;5061386;28;19948;-86
2023/03/18 05:43:28;;;;;;;;;;;11.20;84.10;;;;;;5090614;28;19927;-83
2023/03/18 05:45:54;;;;;;;;;;;11.20;84.10;;;;;;5095251;28;19912;-84
2023/03/18 05:48:20;;;;;;;;;;;11.30;83.80;;;;;;5084917;28;19916;-84
2023/03/18 05:50:46;;;;;;;;;;;11.30;83.70;;;;;;5082227;28;19913;-84
2023/03/18 05:53:11;;;;;;;;;;;11.30;83.60;;;;;;5089253;28;19912;-85
2023/03/18 05:55:37;;;;;;;;;;;11.40;83.60;;;;;;5092210;28;19912;-84
2023/03/18 05:58:03;;;;;;;;;;;11.50;83.50;;;;;;5086064;28;19913;-84
2023/03/18 06:00:29;;;;;;;;;;;11.60;83.10;;;;;;5055596;28;20003;-83
2023/03/18 06:02:58;;;;;;;;;;;11.60;83.00;;;;;;5074205;28;20014;-83
2023/03/18 06:05:24;;;;;;;;;;;11.60;82.80;;;;;;5066515;28;20354;-86
2023/03/18 06:07:50;;;;;;;;;;;11.60;82.80;;;;;;5070815;28;19916;-85
2023/03/18 06:10:16;;;;;;;;;;;11.70;82.60;;;;;;5074660;28;19924;-84
2023/03/18 06:12:43;;;;;;;;;;;11.60;82.60;;;;;;5072371;28;19962;-85
2023/03/18 06:15:10;;;;;;;;;;;11.70;82.70;;;;;;5072606;28;19919;-84
2023/03/18 06:17:36;;;;;;;;;;;11.70;82.50;;;;;;5072201;28;20343;-84
2023/03/18 06:20:03;;;;;;;;;;;11.70;82.50;;;;;;5066298;28;19916;-84
2023/03/18 06:22:30;;;;;;;;;;;11.70;82.30;;;;;;5073742;28;19942;-84
2023/03/18 06:24:56;;;;;;;;;;;11.80;82.50;;;;;;5075242;28;19919;-84
2023/03/18 06:27:22;;;;;;;;;;;11.70;82.30;;;;;;5073114;28;19916;-84
2023/03/18 06:29:47;;;;;;;;;;;11.80;82.20;;;;;;5056589;28;19915;-83
2023/03/18 06:32:13;;;;;;;;;;;11.80;82.30;;;;;;5055530;28;19912;-85
2023/03/18 06:34:39;;;;;;;;;;;11.80;82.30;;;;;;5077651;28;19997;-85
2023/03/18 06:37:04;;;;;;;;;;;11.80;82.10;;;;;;5075026;28;19921;-84
2023/03/18 06:39:30;;;;;;;;;;;11.80;82.10;;;;;;5071881;28;19922;-83
2023/03/18 06:41:55;;;;;;;;;;;11.90;81.80;;;;;;5074656;28;19919;-84
2023/03/18 06:44:21;;;;;;;;;;;12.00;81.50;;;;;;5072527;28;19965;-84
2023/03/18 06:46:56;;;;;;;;;;;11.90;81.50;;;;;;5069203;28;19913;-90
2023/03/18 06:49:45;;;;;;;;;;;12.00;81.50;;;;;;5048870;28;20373;-91
2023/03/18 06:52:12;;;;;;;;;;;12.00;81.30;;;;;;5056831;28;20282;-91
2023/03/18 06:54:38;;;;;;;;;;;11.90;81.60;;;;;;5065449;28;20377;-88
2023/03/18 06:57:03;;;;;;;;;;;12.00;81.70;;;;;;5065798;28;19935;-90
2023/03/18 06:59:29;;;;;;;;;;;12.00;81.40;;;;;;5048587;28;19912;-88
2023/03/18 07:01:55;;;;;;;;;;;12.00;81.30;;;;;;5074218;28;19912;-88
2023/03/18 07:04:22;;;;;;;;;;;12.00;81.20;;;;;;5059154;28;19966;-88
2023/03/18 07:06:48;;;;;;;;;;;12.00;81.40;;;;;;5055205;28;19924;-89
2023/03/18 07:09:14;;;;;;;;;;;12.00;81.20;;;;;;5066254;28;19912;-87
2023/03/18 07:11:53;;;;;;;;;;;12.00;81.30;;;;;;5055637;28;19916;-90
2023/03/18 07:14:32;;;;;;;;;;;12.00;81.10;;;;;;5075127;28;19916;-89
2023/03/18 07:16:58;;;;;;;;;;;12.00;80.90;;;;;;5053041;28;19912;-89
2023/03/18 07:19:23;;;;;;;;;;;12.10;80.90;;;;;;5053483;28;20325;-90
2023/03/18 07:21:49;;;;;;;;;;;12.20;80.50;;;;;;5067144;28;19938;-85
2023/03/18 07:24:16;;;;;;;;;;;12.20;80.70;;;;;;5070028;28;20011;-87
2023/03/18 07:26:41;;;;;;;;;;;12.20;80.60;;;;;;5077931;28;20409;-85
2023/03/18 07:29:07;;;;;;;;;;;12.20;80.40;;;;;;5053507;28;19942;-87
2023/03/18 07:31:32;;;;;;;;;;;12.30;80.40;;;;;;5054940;28;19938;-86
2023/03/18 07:34:03;;;;;;;;;;;12.30;80.40;;;;;;5072575;28;19999;-87
2023/03/18 07:36:29;;;;;;;;;;;12.40;80.10;;;;;;5049875;28;19923;-90
2023/03/18 07:38:55;;;;;;;;;;;12.40;80.10;;;;;;5055961;28;20007;-87
2023/03/18 07:41:21;;;;;;;;;;;12.40;80.10;;;;;;5090560;28;19955;-88
2023/03/18 07:43:47;;;;;;;;;;;12.50;80.00;;;;;;5080657;28;19916;-90
2023/03/18 07:46:13;;;;;;;;;;;12.50;79.80;;;;;;5056830;28;19913;-90
2023/03/18 07:48:39;;;;;;;;;;;12.60;79.50;;;;;;5056631;28;20001;-90
2023/03/18 07:51:04;;;;;;;;;;;12.70;79.10;;;;;;5065978;28;19908;-90
2023/03/18 07:53:30;;;;;;;;;;;12.80;78.90;;;;;;5062488;28;19982;-87
2023/03/18 07:55:56;;;;;;;;;;;12.80;78.90;;;;;;5072208;28;20417;-90
2023/03/18 07:58:21;;;;;;;;;;;12.80;78.70;;;;;;5056685;28;19919;-89
2023/03/18 08:00:48;;;;;;;;;;;12.90;78.80;;;;;;5056867;28;20016;-89
2023/03/18 08:03:14;;;;;;;;;;;13.00;78.30;;;;;;5054935;28;19948;-89
2023/03/18 08:05:40;;;;;;;;;;;13.10;77.90;;;;;;5074443;28;19920;-89
2023/03/18 08:08:05;;;;;;;;;;;13.30;77.50;;;;;;5065947;28;19924;-89
2023/03/18 08:10:31;;;;;;;;;;;13.30;76.90;;;;;;5072714;28;19978;-88
2023/03/18 08:12:56;;;;;;;;;;;13.60;76.50;;;;;;5054879;28;21213;-89
2023/03/18 08:15:22;;;;;;;;;;;13.60;76.30;;;;;;5055954;28;19912;-89
2023/03/18 08:17:48;;;;;;;;;;;13.60;76.30;;;;;;5054897;28;19928;-87
2023/03/18 08:20:14;;;;;;;;;;;13.70;76.40;;;;;;5076568;28;19909;-86
2023/03/18 08:22:39;;;;;;;;;;;13.80;75.60;;;;;;5057174;28;19913;-86
2023/03/18 08:25:05;;;;;;;;;;;13.70;75.40;;;;;;5072473;28;19912;-85
2023/03/18 08:27:31;;;;;;;;;;;13.60;75.70;;;;;;5072503;28;19917;-88
2023/03/18 08:29:57;;;;;;;;;;;13.60;75.50;;;;;;5074472;28;19913;-86
2023/03/18 08:32:23;;;;;;;;;;;13.60;75.70;;;;;;5066581;28;19916;-87
2023/03/18 08:34:48;;;;;;;;;;;13.60;75.50;;;;;;5060587;28;19923;-87
2023/03/18 08:37:14;;;;;;;;;;;13.70;75.50;;;;;;5070395;28;19924;-87
2023/03/18 08:39:42;;;;;;;;;;;13.80;75.50;;;;;;5053852;28;20073;-88
2023/03/18 08:42:09;;;;;;;;;;;13.80;75.40;;;;;;5051491;28;20500;-82
2023/03/18 08:44:34;;;;;;;;;;;14.00;74.60;;;;;;5074278;28;19919;-84
2023/03/18 08:47:00;;;;;;;;;;;14.10;74.10;;;;;;5073859;28;19912;-85
2023/03/18 08:49:26;;;;;;;;;;;14.20;73.60;;;;;;5061537;28;20396;-87
2023/03/18 08:51:51;;;;;;;;;;;14.10;73.10;;;;;;5083358;28;19923;-83
2023/03/18 08:54:17;;;;;;;;;;;14.10;72.90;;;;;;5091592;28;19946;-83
2023/03/18 08:56:43;;;;;;;;;;;14.20;73.50;;;;;;5102967;28;19920;-84
2023/03/18 08:59:09;;;;;;;;;;;14.30;73.20;;;;;;5072546;28;19927;-85
2023/03/18 09:01:35;;;;;;;;;;;14.30;72.40;;;;;;5055110;28;19965;-87
2023/03/18 09:04:00;;;;;;;;;;;14.30;72.90;;;;;;5080698;28;19916;-86
2023/03/18 09:06:33;;;;;;;;;;;14.50;72.50;;;;;;5081508;28;20011;-87
2023/03/18 09:09:01;;;;;;;;;;;14.40;73.00;;;;;;5071987;28;20015;-86
2023/03/18 09:11:27;;;;;;;;;;;14.50;72.90;;;;;;5055785;28;19916;-85
2023/03/18 09:13:53;;;;;;;;;;;14.60;72.40;;;;;;5041879;28;20023;-85
2023/03/18 09:16:18;;;;;;;;;;;14.60;72.10;;;;;;5080881;28;19917;-86
2023/03/18 09:18:44;;;;;;;;;;;14.60;71.70;;;;;;5059903;28;19912;-85
2023/03/18 09:21:10;;;;;;;;;;;14.80;71.40;;;;;;5060357;28;19912;-87
2023/03/18 09:23:36;;;;;;;;;;;14.90;71.20;;;;;;5048843;28;19913;-87
2023/03/18 09:26:02;;;;;;;;;;;14.90;70.90;;;;;;5042947;28;19965;-87
2023/03/18 09:28:28;;;;;;;;;;;14.80;70.80;;;;;;5052598;28;19936;-88
2023/03/18 09:30:54;;;;;;;;;;;14.80;70.90;;;;;;5052059;28;19919;-86
2023/03/18 09:33:21;;;;;;;;;;;14.90;70.90;;;;;;5070217;28;19947;-88
2023/03/18 09:35:47;;;;;;;;;;;14.90;70.80;;;;;;5061684;28;20019;-88
2023/03/18 09:38:13;;;;;;;;;;;14.80;70.60;;;;;;5052057;28;19999;-83
2023/03/18 09:40:45;;;;;;;;;;;14.70;70.90;;;;;;5059944;28;19984;-85
2023/03/18 09:43:30;;;;;;;;;;;14.60;71.10;;;;;;5053300;28;19919;-85
2023/03/18 09:45:59;;;;;;;;;;;14.70;70.50;;;;;;5056924;28;20404;-84
2023/03/18 09:48:25;;;;;;;;;;;14.80;70.70;;;;;;5070960;28;19927;-86
2023/03/18 09:51:17;;;;;;;;;;;14.90;70.60;;;;;;5063696;28;20289;-85
2023/03/18 09:53:55;;;;;;;;;;;15.00;70.00;;;;;;5058347;28;19912;-86
2023/03/18 09:56:33;;;;;;;;;;;15.10;69.40;;;;;;5055435;28;19909;-88
2023/03/18 09:59:14;;;;;;;;;;;15.30;69.40;;;;;;5079658;28;20475;-85
2023/03/18 10:01:42;;;;;;;;;;;15.40;68.20;;;;;;5078898;28;19915;-86
2023/03/18 10:04:14;;;;;;;;;;;15.40;67.70;;;;;;5083991;28;19909;-86
2023/03/18 10:06:42;;;;;;;;;;;15.20;68.60;;;;;;5064662;28;20292;-87
2023/03/18 10:09:27;;;;;;;;;;;15.00;69.10;;;;;;5074279;28;20451;-86
2023/03/18 10:11:54;;;;;;;;;;;14.90;69.50;;;;;;5086023;28;19916;-86
2023/03/18 10:14:25;;;;;;;;;;;14.90;69.80;;;;;;5072946;28;19935;-86
2023/03/18 10:17:10;;;;;;;;;;;14.80;69.00;;;;;;5058234;28;19978;-86
2023/03/18 10:19:36;;;;;;;;;;;14.70;69.80;;;;;;5064026;28;19921;-86
2023/03/18 10:22:04;;;;;;;;;;;14.60;69.90;;;;;;5065626;28;19912;-84
2023/03/18 10:24:41;;;;;;;;;;;14.60;70.10;;;;;;5075004;28;20019;-87
2023/03/18 10:27:15;;;;;;;;;;;14.60;70.30;;;;;;5064085;28;19916;-87
2023/03/18 10:29:53;;;;;;;;;;;14.60;70.00;;;;;;5072634;28;20487;-87
2023/03/18 10:32:31;;;;;;;;;;;14.50;69.50;;;;;;5056862;28;20368;-87
2023/03/18 10:35:15;;;;;;;;;;;14.50;69.50;;;;;;5061226;28;19908;-87
2023/03/18 10:37:57;;;;;;;;;;;14.60;69.90;;;;;;5059546;28;19916;-87
2023/03/18 10:40:28;;;;;;;;;;;14.50;70.00;;;;;;5050466;28;19942;-86
2023/03/18 10:42:55;;;;;;;;;;;14.60;69.80;;;;;;5069696;28;19920;-86
2023/03/18 10:45:28;;;;;;;;;;;14.60;69.60;;;;;;5055026;28;19912;-87
2023/03/18 10:48:11;;;;;;;;;;;14.70;69.60;;;;;;5057588;28;19912;-86
2023/03/18 10:50:57;;;;;;;;;;;14.70;69.00;;;;;;5066355;28;20010;-85
2023/03/18 10:53:27;;;;;;;;;;;14.70;69.20;;;;;;5051809;28;20102;-86
2023/03/18 10:55:52;;;;;;;;;;;14.60;69.20;;;;;;5065567;28;19959;-84
2023/03/18 10:58:18;;;;;;;;;;;14.60;68.80;;;;;;5060762;28;19935;-85
2023/03/18 11:00:44;;;;;;;;;;;14.60;69.10;;;;;;5057027;28;19969;-85
2023/03/18 11:03:19;;;;;;;;;;;14.60;69.30;;;;;;5075595;28;20381;-85
2023/03/18 11:05:45;;;;;;;;;;;14.50;69.50;;;;;;5056561;28;19976;-85
2023/03/18 11:08:27;;;;;;;;;;;14.60;69.50;;;;;;5076544;28;20405;-85
2023/03/18 11:10:53;;;;;;;;;;;14.60;69.30;;;;;;5068217;28;19946;-84
2023/03/18 11:13:19;;;;;;;;;;;14.70;68.80;;;;;;5078500;28;19912;-85
2023/03/18 11:15:48;;;;;;;;;;;14.80;69.30;;;;;;5069026;28;19919;-86
2023/03/18 11:18:24;;;;;;;;;;;15.00;68.60;;;;;;5056244;28;19909;-86
2023/03/18 11:20:59;;;;;;;;;;;15.10;67.50;;;;;;5056039;28;19912;-86
2023/03/18 11:23:45;;;;;;;;;;;15.30;67.00;;;;;;5071743;28;19912;-85
2023/03/18 11:26:18;;;;;;;;;;;15.40;66.60;;;;;;5057477;28;19913;-86
2023/03/18 11:28:44;;;;;;;;;;;15.20;66.60;;;;;;5080880;28;20270;-85
2023/03/18 11:31:15;;;;;;;;;;;15.20;67.10;;;;;;5070426;28;19951;-86
2023/03/18 11:33:40;;;;;;;;;;;15.30;66.80;;;;;;5056412;28;19923;-85
2023/03/18 11:36:08;;;;;;;;;;;15.30;66.80;;;;;;5073706;28;19920;-84
2023/03/18 11:38:37;;;;;;;;;;;15.50;66.60;;;;;;5062700;28;19931;-85
2023/03/18 11:41:07;;;;;;;;;;;15.60;66.10;;;;;;5076615;28;19915;-85
2023/03/18 11:43:35;;;;;;;;;;;15.60;65.90;;;;;;5076426;28;19958;-86
2023/03/18 11:46:04;;;;;;;;;;;15.60;65.90;;;;;;5072428;28;20003;-85
2023/03/18 11:48:39;;;;;;;;;;;15.50;66.00;;;;;;5050520;28;20368;-85
2023/03/18 11:51:16;;;;;;;;;;;15.40;66.30;;;;;;5069879;28;19917;-85
2023/03/18 11:53:44;;;;;;;;;;;15.50;65.90;;;;;;5060535;28;19920;-85
2023/03/18 11:56:34;;;;;;;;;;;15.50;66.10;;;;;;5082538;28;19912;-86
2023/03/18 11:59:18;;;;;;;;;;;15.50;66.30;;;;;;5091331;28;19920;-84
2023/03/18 12:02:06;;;;;;;;;;;15.80;65.60;;;;;;5071023;28;19942;-85
2023/03/18 12:04:51;;;;;;;;;;;16.10;64.80;;;;;;5068578;28;19924;-85
2023/03/18 12:07:16;;;;;;;;;;;16.30;63.60;;;;;;5082150;28;19942;-86
2023/03/18 12:09:47;;;;;;;;;;;16.10;63.00;;;;;;5055544;28;20572;-85
2023/03/18 12:12:19;;;;;;;;;;;16.10;63.50;;;;;;5056804;28;20412;-85
2023/03/18 12:14:44;;;;;;;;;;;16.50;61.90;;;;;;5068930;28;19932;-87
2023/03/18 12:17:22;;;;;;;;;;;16.50;61.50;;;;;;5073954;28;19971;-86
2023/03/18 12:20:08;;;;;;;;;;;16.80;60.30;;;;;;5050789;28;19920;-86
2023/03/18 12:22:53;;;;;;;;;;;16.70;60.40;;;;;;5057630;28;19913;-86
2023/03/18 12:25:59;;;;;;;;;;;16.80;60.50;;;;;;5081654;28;19913;-86
2023/03/18 12:28:51;;;;;;;;;;;16.80;60.70;;;;;;5050957;28;19916;-86
2023/03/18 12:31:38;;;;;;;;;;;17.10;59.80;;;;;;5079331;28;19920;-86
2023/03/18 12:34:07;;;;;;;;;;;17.20;58.60;;;;;;5078577;28;19926;-84
2023/03/18 12:36:43;;;;;;;;;;;17.40;59.00;;;;;;5111697;22;19924;-88
2023/03/18 12:39:08;;;;;;;;;;;17.60;59.20;;;;;;5086807;28;19915;-87
2023/03/18 12:42:06;;;;;;;;;;;17.50;58.10;;;;;;5093309;28;19916;-86
2023/03/18 12:44:44;;;;;;;;;;;17.60;56.70;;;;;;5041303;28;19912;-85
2023/03/18 12:47:14;;;;;;;;;;;17.60;56.30;;;;;;5108483;28;20060;-85
2023/03/18 12:49:46;;;;;;;;;;;17.60;56.30;;;;;;5107724;28;19965;-85
2023/03/18 12:52:24;;;;;;;;;;;17.60;56.20;;;;;;5089204;28;19912;-86
2023/03/18 12:54:56;;;;;;;;;;;17.50;56.30;;;;;;5113153;28;19912;-86
2023/03/18 12:57:36;;;;;;;;;;;17.60;56.00;;;;;;5113457;28;19912;-86
2023/03/18 13:00:09;;;;;;;;;;;17.60;55.50;;;;;;5129371;27;19911;-86
2023/03/18 13:02:37;;;;;;;;;;;17.70;55.20;;;;;;5094217;28;20452;-86
2023/03/18 13:05:04;;;;;;;;;;;17.60;55.40;;;;;;5113287;28;19908;-85
2023/03/18 13:07:39;;;;;;;;;;;17.80;55.30;;;;;;5096231;28;19916;-86
2023/03/18 13:10:18;;;;;;;;;;;18.00;56.20;;;;;;5093326;28;19912;-87
2023/03/18 13:12:45;;;;;;;;;;;18.20;55.60;;;;;;5116941;28;19920;-85
2023/03/18 13:15:17;;;;;;;;;;;18.30;54.90;;;;;;5100801;28;19928;-88
2023/03/18 13:17:44;;;;;;;;;;;18.20;54.50;;;;;;5098708;28;19908;-86
2023/03/18 13:20:09;;;;;;;;;;;18.20;53.90;;;;;;5093587;28;19943;-84
2023/03/18 13:22:35;;;;;;;;;;;18.10;54.10;;;;;;5126284;27;19923;-86
2023/03/18 13:25:19;;;;;;;;;;;18.00;54.40;;;;;;5101343;28;19923;-85
2023/03/18 13:27:57;;;;;;;;;;;17.80;55.30;;;;;;5090773;27;20274;-86
2023/03/18 13:30:32;;;;;;;;;;;17.60;55.80;;;;;;5106481;28;19908;-85
2023/03/18 13:33:01;;;;;;;;;;;17.70;55.30;;;;;;5106413;28;19912;-85
2023/03/18 13:35:34;;;;;;;;;;;17.70;55.20;;;;;;5101216;28;20581;-84
2023/03/18 13:37:59;;;;;;;;;;;17.70;55.80;;;;;;5123274;28;19924;-85
2023/03/18 13:40:34;;;;;;;;;;;17.70;56.00;;;;;;5088415;28;19960;-85
2023/03/18 13:43:01;;;;;;;;;;;17.80;55.70;;;;;;5098069;28;19918;-85
2023/03/18 13:45:28;;;;;;;;;;;18.00;55.90;;;;;;5116507;28;19927;-89
2023/03/18 13:48:04;;;;;;;;;;;18.10;55.20;;;;;;5095109;28;19920;-84
2023/03/18 13:50:38;;;;;;;;;;;18.20;55.40;;;;;;5098833;28;19912;-85
2023/03/18 13:53:05;;;;;;;;;;;18.30;54.20;;;;;;5104327;28;20413;-84
2023/03/18 13:55:32;;;;;;;;;;;18.30;55.40;;;;;;5088911;28;20014;-85
2023/03/18 13:58:10;;;;;;;;;;;18.50;53.80;;;;;;5109281;28;19965;-84
2023/03/18 14:00:37;;;;;;;;;;;18.50;53.50;;;;;;5098827;28;19939;-84
2023/03/18 14:03:25;;;;;;;;;;;18.70;52.90;;;;;;5102946;27;19995;-84
2023/03/18 14:05:53;;;;;;;;;;;18.70;53.10;;;;;;5121763;28;19907;-84
2023/03/18 14:08:33;;;;;;;;;;;18.60;53.30;;;;;;5104526;28;20014;-84
2023/03/18 14:11:27;;;;;;;;;;;18.80;53.20;;;;;;5100240;28;19915;-85
2023/03/18 14:13:55;;;;;;;;;;;18.80;51.50;;;;;;5099897;28;19923;-85
2023/03/18 14:16:22;;;;;;;;;;;18.80;51.20;;;;;;5103781;28;20011;-85
2023/03/18 14:18:56;;;;;;;;;;;18.80;52.00;;;;;;5105318;28;19927;-85
2023/03/18 14:21:23;;;;;;;;;;;18.70;52.10;;;;;;5120527;28;19937;-86
2023/03/18 14:24:07;;;;;;;;;;;18.70;52.40;;;;;;5118794;28;19916;-85
2023/03/18 14:26:32;;;;;;;;;;;18.70;52.30;;;;;;5114276;28;19969;-85
2023/03/18 14:29:15;;;;;;;;;;;18.80;52.90;;;;;;5107499;28;19920;-85
2023/03/18 14:31:41;;;;;;;;;;;18.50;53.50;;;;;;5124846;28;19912;-84